Time;durP1;ratioP1;P1;durP2;ratioP2;P2;SDS_P1;SDS_P2;PMS_P1;PMS_P2;Temp;Humidity;BMP_temperature;BMP_pressure;BME280_temperature;BME280_humidity;BME280_pressure;Samples;Min_cycle;Max_cycle;Signal;HPM_P1;HPM_P2
2023/11/30 00:01:55;;;;;;;4.73;3.60;;;5.70;99.90;;;;;;5041593;28;20313;-58
2023/11/30 00:04:23;;;;;;;4.70;3.50;;;5.70;99.90;;;;;;5042258;28;20225;-58
2023/11/30 00:06:50;;;;;;;4.13;2.73;;;5.60;99.90;;;;;;5044648;28;20241;-58
2023/11/30 00:09:17;;;;;;;3.87;3.20;;;5.60;99.90;;;;;;5045023;28;20741;-58
2023/11/30 00:11:43;;;;;;;5.37;2.70;;;5.60;99.90;;;;;;5041682;28;20206;-58
2023/11/30 00:14:10;;;;;;;3.70;2.73;;;5.60;99.90;;;;;;5041667;28;20207;-58
2023/11/30 00:16:37;;;;;;;47.67;39.37;;;5.50;99.90;;;;;;5043819;28;20240;-58
2023/11/30 00:19:03;;;;;;;13.13;10.37;;;5.50;99.90;;;;;;5044992;28;20213;-57
2023/11/30 00:21:31;;;;;;;6.00;5.40;;;5.50;99.90;;;;;;5042711;28;20236;-59
2023/11/30 00:23:58;;;;;;;6.00;5.40;;;5.40;99.90;;;;;;5041590;28;20202;-58
2023/11/30 00:26:25;;;;;;;6.93;6.23;;;5.20;99.90;;;;;;5042021;28;20237;-59
2023/11/30 00:28:52;;;;;;;4.00;3.57;;;5.10;99.90;;;;;;5044844;28;20205;-61
2023/11/30 00:31:18;;;;;;;4.50;3.47;;;4.90;99.90;;;;;;5043650;28;20208;-59
2023/11/30 00:33:45;;;;;;;5.13;3.53;;;4.80;99.90;;;;;;5041142;28;20207;-58
2023/11/30 00:36:12;;;;;;;10.90;8.37;;;4.50;99.90;;;;;;5040920;28;20280;-58
2023/11/30 00:38:40;;;;;;;9.87;6.70;;;4.40;99.90;;;;;;5044706;28;20631;-57
2023/11/30 00:41:07;;;;;;;5.40;3.53;;;4.20;99.90;;;;;;5044316;28;20765;-58
2023/11/30 00:43:34;;;;;;;7.33;5.13;;;4.00;99.90;;;;;;5042453;28;20202;-57
2023/11/30 00:46:01;;;;;;;4.03;3.30;;;3.80;99.90;;;;;;5041010;28;20234;-57
2023/11/30 00:48:28;;;;;;;8.33;5.87;;;3.80;99.90;;;;;;5042189;28;20206;-57
2023/11/30 00:50:55;;;;;;;6.07;5.30;;;3.70;99.90;;;;;;5044009;28;20690;-57
2023/11/30 00:53:21;;;;;;;7.60;5.90;;;3.70;99.90;;;;;;5043732;28;20201;-58
2023/11/30 00:55:49;;;;;;;6.37;5.50;;;3.60;99.90;;;;;;5040829;28;20234;-58
2023/11/30 00:58:16;;;;;;;6.20;4.93;;;3.50;99.90;;;;;;5040685;28;20336;-57
2023/11/30 01:00:42;;;;;;;5.20;4.00;;;3.50;99.90;;;;;;5043911;28;20221;-57
2023/11/30 01:03:09;;;;;;;4.97;4.00;;;3.40;99.90;;;;;;5044215;28;20205;-57
2023/11/30 01:05:36;;;;;;;6.13;3.97;;;3.30;99.90;;;;;;5041403;28;20283;-57
2023/11/30 01:08:03;;;;;;;4.07;3.20;;;3.20;99.90;;;;;;5040330;28;20690;-57
2023/11/30 01:10:30;;;;;;;4.37;3.70;;;3.10;99.90;;;;;;5041808;28;20206;-57
2023/11/30 01:12:58;;;;;;;5.57;4.00;;;3.10;99.90;;;;;;5043823;28;20308;-58
2023/11/30 01:15:25;;;;;;;4.40;3.50;;;3.00;99.90;;;;;;5042542;28;20291;-57
2023/11/30 01:17:51;;;;;;;5.17;3.90;;;3.00;99.90;;;;;;5040501;28;20298;-57
2023/11/30 01:20:18;;;;;;;4.37;3.60;;;2.90;99.90;;;;;;5040344;28;20264;-56
2023/11/30 01:22:45;;;;;;;5.37;3.47;;;2.80;99.90;;;;;;5043990;28;20225;-57
2023/11/30 01:25:12;;;;;;;4.53;3.60;;;2.80;99.90;;;;;;5043578;28;20202;-57
2023/11/30 01:27:38;;;;;;;4.50;3.40;;;2.70;99.90;;;;;;5040976;28;20212;-57
2023/11/30 01:30:08;;;;;;;5.37;3.70;;;2.80;99.90;;;;;;5039997;28;20293;-57
2023/11/30 01:32:35;;;;;;;3.70;3.20;;;2.80;99.90;;;;;;5042283;28;20665;-57
2023/11/30 01:35:01;;;;;;;3.70;3.20;;;2.80;99.90;;;;;;5043399;28;20242;-57
2023/11/30 01:37:28;;;;;;;4.63;3.97;;;2.90;99.90;;;;;;5041950;28;20209;-57
2023/11/30 01:39:55;;;;;;;4.90;4.03;;;2.90;99.90;;;;;;5039974;28;20241;-57
2023/11/30 01:42:22;;;;;;;5.47;3.80;;;2.90;99.90;;;;;;5039596;28;20221;-57
2023/11/30 01:44:49;;;;;;;6.47;4.20;;;2.80;99.90;;;;;;5043220;28;20232;-57
2023/11/30 01:47:17;;;;;;;6.60;4.07;;;2.70;99.90;;;;;;5043149;28;20228;-57
2023/11/30 01:49:44;;;;;;;6.37;4.23;;;2.70;99.90;;;;;;5039838;28;20575;-57
2023/11/30 01:52:11;;;;;;;9.97;5.47;;;2.60;99.90;;;;;;5039788;28;20625;-57
2023/11/30 01:54:38;;;;;;;6.60;4.60;;;2.60;99.90;;;;;;5042263;28;20214;-57
2023/11/30 01:57:06;;;;;;;7.83;4.93;;;2.60;99.90;;;;;;5042863;28;20275;-57
2023/11/30 01:59:33;;;;;;;8.53;4.97;;;2.50;99.90;;;;;;5041605;28;20208;-57
2023/11/30 02:02:00;;;;;;;6.93;4.40;;;2.50;99.90;;;;;;5039567;28;20214;-57
2023/11/30 02:04:31;;;;;;;9.73;5.13;;;2.50;99.90;;;;;;5040572;28;20202;-58
2023/11/30 02:06:58;;;;;;;8.43;5.50;;;2.50;99.90;;;;;;5043010;28;20222;-57
2023/11/30 02:09:24;;;;;;;7.73;5.67;;;2.60;99.90;;;;;;5042318;28;20204;-58
2023/11/30 02:11:51;;;;;;;8.57;5.43;;;2.60;99.90;;;;;;5039379;28;20198;-57
2023/11/30 02:14:19;;;;;;;9.30;4.90;;;2.60;99.90;;;;;;5039612;28;20660;-57
2023/11/30 02:16:45;;;;;;;7.50;4.80;;;2.60;99.90;;;;;;5042391;28;20225;-57
2023/11/30 02:19:12;;;;;;;8.80;4.87;;;2.60;99.90;;;;;;5042919;28;20716;-57
2023/11/30 02:21:48;;;;;;;6.37;4.50;;;2.60;99.90;;;;;;5039970;28;20721;-57
2023/11/30 02:24:15;;;;;;;7.13;4.43;;;2.60;99.90;;;;;;5039458;28;20206;-57
2023/11/30 02:26:41;;;;;;;5.30;4.03;;;2.60;99.90;;;;;;5042003;28;20278;-57
2023/11/30 02:29:08;;;;;;;7.03;4.40;;;2.60;99.90;;;;;;5043186;28;20202;-57
2023/11/30 02:31:35;;;;;;;7.70;4.20;;;2.60;99.90;;;;;;5040605;28;20613;-58
2023/11/30 02:34:01;;;;;;;6.83;4.43;;;2.50;99.90;;;;;;5039304;28;20545;-57
2023/11/30 02:36:28;;;;;;;5.93;4.37;;;2.40;99.90;;;;;;5039782;28;20252;-58
2023/11/30 02:38:56;;;;;;;5.17;4.20;;;2.40;99.90;;;;;;5042952;28;20212;-58
2023/11/30 02:41:23;;;;;;;4.83;3.93;;;2.30;99.90;;;;;;5042589;28;20221;-58
2023/11/30 02:43:50;;;;;;;4.73;3.90;;;2.30;99.90;;;;;;5039549;28;20202;-58
2023/11/30 02:46:15;;;;;;;5.13;3.87;;;2.30;99.90;;;;;;5039153;28;20333;-57
2023/11/30 02:48:42;;;;;;;6.20;4.23;;;2.30;99.90;;;;;;5042082;28;20727;-58
2023/11/30 02:51:10;;;;;;;5.90;4.53;;;2.40;99.90;;;;;;5042462;28;20251;-57
2023/11/30 02:53:37;;;;;;;5.03;4.07;;;2.40;99.90;;;;;;5040313;28;20209;-58
2023/11/30 02:56:06;;;;;;;5.33;4.23;;;2.60;99.90;;;;;;5042079;28;20221;-58
2023/11/30 02:58:33;;;;;;;8.30;4.10;;;2.50;99.90;;;;;;5044692;28;20202;-58
2023/11/30 03:01:02;;;;;;;4.73;3.73;;;2.40;99.90;;;;;;5046342;28;20209;-57
2023/11/30 03:03:28;;;;;;;4.57;3.90;;;2.40;99.90;;;;;;5045448;28;20212;-57
2023/11/30 03:05:55;;;;;;;4.67;4.10;;;2.40;99.90;;;;;;5042602;28;20218;-57
2023/11/30 03:08:22;;;;;;;4.57;3.73;;;2.40;99.90;;;;;;5042734;28;20665;-57
2023/11/30 03:10:49;;;;;;;5.07;4.07;;;2.40;99.90;;;;;;5046460;28;20225;-58
2023/11/30 03:13:17;;;;;;;5.27;4.00;;;2.50;99.90;;;;;;5046303;28;20209;-57
2023/11/30 03:15:45;;;;;;;4.27;3.50;;;2.50;99.90;;;;;;5042795;28;20230;-57
2023/11/30 03:18:12;;;;;;;4.30;3.60;;;2.50;99.90;;;;;;5042532;28;20203;-57
2023/11/30 03:20:39;;;;;;;5.93;4.07;;;2.50;99.90;;;;;;5044858;28;20198;-57
2023/11/30 03:23:06;;;;;;;5.17;3.83;;;2.40;99.90;;;;;;5046010;28;20213;-57
2023/11/30 03:25:33;;;;;;;4.13;3.40;;;2.40;99.90;;;;;;5044644;28;20229;-57
2023/11/30 03:27:59;;;;;;;4.30;3.50;;;2.40;99.90;;;;;;5042345;28;20206;-57
2023/11/30 03:30:27;;;;;;;4.53;3.87;;;2.30;99.90;;;;;;5042698;28;20240;-57
2023/11/30 03:32:55;;;;;;;4.53;3.97;;;2.40;99.90;;;;;;5045754;28;20194;-57
2023/11/30 03:35:22;;;;;;;5.23;3.57;;;2.40;99.90;;;;;;5045978;28;20230;-57
2023/11/30 03:37:49;;;;;;;6.43;3.70;;;2.40;99.90;;;;;;5045662;28;20205;-56
2023/11/30 03:40:16;;;;;;;5.53;3.70;;;2.40;99.90;;;;;;5045617;28;20217;-56
2023/11/30 03:42:42;;;;;;;3.90;3.30;;;2.40;99.90;;;;;;5042769;28;20225;-55
2023/11/30 03:45:10;;;;;;;5.00;3.87;;;2.40;99.90;;;;;;5042190;28;20198;-56
2023/11/30 03:47:38;;;;;;;6.87;3.70;;;2.50;99.90;;;;;;5043434;28;20202;-56
2023/11/30 03:50:05;;;;;;;3.90;3.33;;;2.40;99.90;;;;;;5045679;28;20260;-57
2023/11/30 03:52:32;;;;;;;4.67;3.10;;;2.30;99.90;;;;;;5044374;28;20554;-57
2023/11/30 03:54:58;;;;;;;5.27;3.30;;;2.30;99.90;;;;;;5041928;28;20620;-57
2023/11/30 03:57:25;;;;;;;6.03;4.13;;;2.30;99.90;;;;;;5042043;28;20214;-57
2023/11/30 03:59:52;;;;;;;3.67;3.07;;;2.40;99.90;;;;;;5045559;28;20205;-56
2023/11/30 04:02:19;;;;;;;4.53;3.17;;;2.40;99.90;;;;;;5045864;28;20243;-56
2023/11/30 04:04:47;;;;;;;5.67;3.07;;;2.50;99.90;;;;;;5042229;28;20209;-56
2023/11/30 04:07:14;;;;;;;3.60;3.00;;;2.60;99.90;;;;;;5040474;28;20299;-56
2023/11/30 04:09:40;;;;;;;3.70;3.10;;;2.70;99.90;;;;;;5043783;28;20221;-56
2023/11/30 04:12:07;;;;;;;3.70;2.80;;;2.80;99.90;;;;;;5045048;28;20682;-56
2023/11/30 04:14:34;;;;;;;3.63;2.90;;;2.80;99.90;;;;;;5043645;28;20205;-56
2023/11/30 04:17:01;;;;;;;4.50;3.23;;;2.80;99.90;;;;;;5041358;28;20240;-57
2023/11/30 04:19:27;;;;;;;4.63;3.50;;;2.70;99.90;;;;;;5042086;28;20534;-57
2023/11/30 04:21:55;;;;;;;5.20;3.70;;;2.70;99.90;;;;;;5044582;28;20616;-58
2023/11/30 04:24:22;;;;;;;4.13;3.20;;;2.70;99.90;;;;;;5045040;28;20197;-57
2023/11/30 04:26:49;;;;;;;4.63;3.30;;;2.70;99.90;;;;;;5041233;28;20253;-58
2023/11/30 04:29:15;;;;;;;4.73;3.53;;;2.60;99.90;;;;;;5041382;28;20277;-58
2023/11/30 04:31:42;;;;;;;5.67;3.93;;;2.70;99.90;;;;;;5043559;28;20206;-57
2023/11/30 04:34:09;;;;;;;6.40;4.07;;;2.70;99.90;;;;;;5044715;28;20210;-57
2023/11/30 04:36:36;;;;;;;6.07;3.97;;;2.80;99.90;;;;;;5042338;28;20737;-57
2023/11/30 04:39:04;;;;;;;5.83;4.47;;;2.80;99.90;;;;;;5041097;28;20202;-58
2023/11/30 04:41:31;;;;;;;4.93;3.50;;;2.70;99.90;;;;;;5040777;28;20619;-58
2023/11/30 04:43:57;;;;;;;4.83;3.73;;;2.70;99.90;;;;;;5040984;28;20664;-57
2023/11/30 04:46:24;;;;;;;5.63;3.60;;;2.60;99.90;;;;;;5041004;28;20292;-57
2023/11/30 04:48:51;;;;;;;5.93;3.70;;;2.60;99.90;;;;;;5041086;28;20289;-58
2023/11/30 04:51:17;;;;;;;7.30;4.27;;;2.50;99.90;;;;;;5040960;28;20260;-57
2023/11/30 04:53:44;;;;;;;4.30;3.57;;;2.30;99.90;;;;;;5043483;28;20589;-57
2023/11/30 04:56:12;;;;;;;4.10;3.70;;;2.20;99.90;;;;;;5043938;28;20221;-57
2023/11/30 04:58:39;;;;;;;4.10;3.30;;;2.20;99.90;;;;;;5042540;28;20205;-58
2023/11/30 05:01:06;;;;;;;4.33;3.93;;;2.20;99.90;;;;;;5040822;28;20206;-58
2023/11/30 05:03:33;;;;;;;4.43;3.30;;;2.30;99.90;;;;;;5041627;28;20708;-56
2023/11/30 05:05:59;;;;;;;4.13;3.30;;;2.40;99.90;;;;;;5044379;28;20248;-58
2023/11/30 05:08:26;;;;;;;4.07;3.47;;;2.30;99.90;;;;;;5044579;28;20648;-58
2023/11/30 05:10:53;;;;;;;3.93;3.50;;;2.20;99.90;;;;;;5044624;28;20206;-58
2023/11/30 05:13:21;;;;;;;4.80;3.80;;;2.10;99.90;;;;;;5045365;28;20203;-58
2023/11/30 05:15:48;;;;;;;4.30;3.70;;;2.10;99.90;;;;;;5043104;28;20233;-58
2023/11/30 05:18:14;;;;;;;4.63;4.00;;;2.10;99.90;;;;;;5043308;28;20206;-58
2023/11/30 05:20:41;;;;;;;4.50;3.73;;;2.00;99.90;;;;;;5041789;28;20210;-58
2023/11/30 05:23:08;;;;;;;4.90;4.13;;;2.00;99.90;;;;;;5040346;28;20650;-58
2023/11/30 05:25:35;;;;;;;5.33;4.03;;;2.00;99.90;;;;;;5041172;28;20241;-58
2023/11/30 05:28:02;;;;;;;6.23;4.20;;;2.00;99.90;;;;;;5043453;28;20209;-58
2023/11/30 05:30:30;;;;;;;6.20;4.30;;;2.00;99.90;;;;;;5043256;28;20261;-58
2023/11/30 05:32:57;;;;;;;4.90;3.90;;;1.90;99.90;;;;;;5040294;28;20206;-57
2023/11/30 05:35:23;;;;;;;5.97;4.07;;;1.90;99.90;;;;;;5040277;28;20260;-58
2023/11/30 05:37:50;;;;;;;4.23;3.60;;;1.90;99.90;;;;;;5043195;28;20210;-57
2023/11/30 05:40:19;;;;;;;5.13;3.63;;;2.00;99.90;;;;;;5043098;28;20209;-57
2023/11/30 05:42:45;;;;;;;5.43;3.93;;;2.10;99.90;;;;;;5040429;28;20222;-56
2023/11/30 05:45:12;;;;;;;6.80;4.57;;;2.20;99.90;;;;;;5039972;28;20252;-57
2023/11/30 05:47:40;;;;;;;6.83;4.10;;;2.30;99.90;;;;;;5041256;28;20202;-57
2023/11/30 05:50:09;;;;;;;4.07;3.67;;;2.40;99.90;;;;;;5043045;28;20201;-56
2023/11/30 05:52:36;;;;;;;4.93;3.43;;;2.50;99.90;;;;;;5041770;28;20280;-58
2023/11/30 05:55:04;;;;;;;5.17;3.70;;;2.60;99.90;;;;;;5040027;28;20210;-58
2023/11/30 05:57:31;;;;;;;5.13;3.30;;;2.70;99.90;;;;;;5039638;28;20210;-58
2023/11/30 05:59:57;;;;;;;3.67;3.27;;;2.70;99.90;;;;;;5043199;28;20213;-58
2023/11/30 06:02:24;;;;;;;10.83;7.30;;;2.70;99.90;;;;;;5043086;28;20229;-56
2023/11/30 06:04:52;;;;;;;6.63;4.10;;;2.70;99.90;;;;;;5039613;28;20233;-58
2023/11/30 06:07:20;;;;;;;4.70;3.70;;;2.70;99.90;;;;;;5039523;28;20241;-58
2023/11/30 06:09:47;;;;;;;5.40;3.53;;;2.70;99.90;;;;;;5042385;28;20210;-58
2023/11/30 06:12:14;;;;;;;4.03;3.60;;;2.70;99.90;;;;;;5036816;28;20210;-58
2023/11/30 06:14:40;;;;;;;4.50;3.60;;;2.80;99.90;;;;;;5040938;28;20206;-57
2023/11/30 06:17:07;;;;;;;4.33;3.60;;;2.80;99.90;;;;;;5042341;28;20237;-57
2023/11/30 06:19:34;;;;;;;6.17;3.63;;;2.80;99.90;;;;;;5042374;28;20285;-57
2023/11/30 06:22:02;;;;;;;4.20;3.57;;;2.80;99.90;;;;;;5038830;28;20293;-56
2023/11/30 06:24:29;;;;;;;4.77;3.77;;;2.80;99.90;;;;;;5039260;28;20245;-56
2023/11/30 06:26:56;;;;;;;4.93;3.33;;;2.80;99.90;;;;;;5042805;28;20306;-57
2023/11/30 06:29:23;;;;;;;5.47;3.97;;;2.90;99.90;;;;;;5041967;28;20202;-57
2023/11/30 06:31:49;;;;;;;6.90;4.40;;;2.90;99.90;;;;;;5039534;28;20672;-57
2023/11/30 06:34:16;;;;;;;6.27;4.33;;;2.90;99.90;;;;;;5039123;28;20194;-57
2023/11/30 06:36:43;;;;;;;6.13;4.57;;;2.90;99.90;;;;;;5040756;28;20318;-57
2023/11/30 06:39:11;;;;;;;7.60;4.50;;;2.80;99.90;;;;;;5042593;28;20202;-57
2023/11/30 06:41:38;;;;;;;6.53;4.40;;;2.80;99.90;;;;;;5041081;28;20201;-56
2023/11/30 06:44:04;;;;;;;7.63;4.67;;;2.70;99.90;;;;;;5038794;28;20218;-57
2023/11/30 06:46:31;;;;;;;8.93;4.80;;;2.70;99.90;;;;;;5038632;28;20241;-57
2023/11/30 06:48:58;;;;;;;5.93;4.27;;;2.80;99.90;;;;;;5042097;28;20210;-57
2023/11/30 06:51:25;;;;;;;6.43;4.20;;;2.80;99.90;;;;;;5042493;28;20267;-57
2023/11/30 06:53:51;;;;;;;6.03;4.03;;;2.80;99.90;;;;;;5038966;28;20205;-57
2023/11/30 06:56:19;;;;;;;8.67;5.27;;;2.80;99.90;;;;;;5038627;28;20236;-56
2023/11/30 06:58:47;;;;;;;7.57;5.20;;;2.80;99.90;;;;;;5041078;28;20210;-58
2023/11/30 07:01:14;;;;;;;6.37;3.80;;;2.90;99.90;;;;;;5041928;28;20292;-57
2023/11/30 07:03:40;;;;;;;7.73;4.50;;;2.90;99.90;;;;;;5040658;28;20225;-58
2023/11/30 07:06:08;;;;;;;7.37;4.23;;;2.80;99.90;;;;;;5038822;28;20217;-57
2023/11/30 07:08:34;;;;;;;6.33;3.70;;;2.80;99.90;;;;;;5039501;28;20677;-58
2023/11/30 07:11:01;;;;;;;4.87;3.83;;;2.70;99.90;;;;;;5042315;28;20236;-57
2023/11/30 07:13:29;;;;;;;4.93;4.00;;;2.70;99.90;;;;;;5042226;28;20260;-58
2023/11/30 07:15:56;;;;;;;5.17;3.70;;;2.60;99.90;;;;;;5038138;28;20226;-58
2023/11/30 07:18:23;;;;;;;4.50;3.53;;;2.60;99.90;;;;;;5038456;28;20531;-58
2023/11/30 07:20:49;;;;;;;5.23;3.53;;;2.70;99.90;;;;;;5041293;28;20210;-56
2023/11/30 07:23:16;;;;;;;5.77;3.53;;;2.70;99.90;;;;;;5042136;28;20225;-57
2023/11/30 07:25:43;;;;;;;4.97;3.53;;;2.60;99.90;;;;;;5040388;28;20601;-56
2023/11/30 07:28:09;;;;;;;4.80;3.60;;;2.50;99.90;;;;;;5038571;28;20229;-56
2023/11/30 07:30:40;;;;;;;5.10;3.70;;;2.50;99.90;;;;;;5039282;28;20257;-57
2023/11/30 07:33:08;;;;;;;5.83;3.53;;;2.50;99.90;;;;;;5041903;28;20589;-57
2023/11/30 07:35:36;;;;;;;4.43;3.70;;;2.60;99.90;;;;;;5041200;28;20577;-56
2023/11/30 07:38:03;;;;;;;6.70;4.30;;;2.70;99.90;;;;;;5038842;28;20694;-57
2023/11/30 07:40:32;;;;;;;4.90;3.67;;;2.80;99.90;;;;;;5039370;28;20349;-57
2023/11/30 07:42:58;;;;;;;5.03;3.93;;;2.90;99.90;;;;;;5046312;28;20306;-57
2023/11/30 07:45:25;;;;;;;5.37;4.07;;;3.00;99.90;;;;;;5045944;28;20257;-58
2023/11/30 07:47:53;;;;;;;6.77;4.63;;;3.10;99.90;;;;;;5042641;28;20595;-58
2023/11/30 07:50:20;;;;;;;9.20;4.93;;;3.20;99.90;;;;;;5042059;28;20211;-56
2023/11/30 07:52:47;;;;;;;6.63;4.30;;;3.20;99.90;;;;;;5043702;28;20214;-57
2023/11/30 07:55:13;;;;;;;7.17;5.00;;;3.30;99.90;;;;;;5045149;28;20221;-56
2023/11/30 07:57:40;;;;;;;6.07;4.30;;;3.50;99.90;;;;;;5043929;28;20734;-57
2023/11/30 08:00:11;;;;;;;6.60;3.67;;;3.70;99.90;;;;;;5041735;28;20260;-57
2023/11/30 08:02:38;;;;;;;5.87;4.50;;;3.80;99.90;;;;;;5042359;28;20264;-55
2023/11/30 08:05:06;;;;;;;5.73;3.77;;;3.80;99.90;;;;;;5045031;28;20298;-57
2023/11/30 08:07:34;;;;;;;5.07;3.87;;;3.80;99.90;;;;;;5044257;28;20202;-56
2023/11/30 08:10:00;;;;;;;5.60;3.70;;;3.70;99.90;;;;;;5041502;28;20248;-56
2023/11/30 08:12:27;;;;;;;4.63;3.57;;;3.80;99.90;;;;;;5041506;28;20282;-57
2023/11/30 08:14:54;;;;;;;3.80;3.30;;;3.90;99.90;;;;;;5044490;28;20202;-56
2023/11/30 08:17:21;;;;;;;4.87;3.80;;;4.00;99.90;;;;;;5044687;28;20596;-57
2023/11/30 08:19:48;;;;;;;6.73;4.93;;;4.10;99.90;;;;;;5042831;28;20212;-56
2023/11/30 08:22:16;;;;;;;8.17;4.20;;;4.20;99.90;;;;;;5040974;28;20680;-57
2023/11/30 08:24:43;;;;;;;7.40;3.83;;;4.30;99.90;;;;;;5042723;28;20273;-56
2023/11/30 08:27:10;;;;;;;6.83;4.20;;;4.30;99.90;;;;;;5044475;28;20225;-56
2023/11/30 08:29:37;;;;;;;5.13;3.97;;;4.20;99.90;;;;;;5043777;28;20671;-56
2023/11/30 08:32:04;;;;;;;5.87;4.17;;;4.20;99.90;;;;;;5041250;28;20198;-56
2023/11/30 08:34:31;;;;;;;4.93;3.60;;;4.20;99.90;;;;;;5043098;28;20198;-55
2023/11/30 08:36:57;;;;;;;4.70;3.70;;;4.20;99.90;;;;;;5044806;28;20226;-56
2023/11/30 08:39:27;;;;;;;6.30;3.80;;;4.20;99.90;;;;;;5044925;28;20671;-56
2023/11/30 08:41:54;;;;;;;7.60;3.70;;;4.40;99.90;;;;;;5041701;28;20723;-56
2023/11/30 08:44:22;;;;;;;5.20;4.20;;;4.50;99.90;;;;;;5041559;28;20781;-56
2023/11/30 08:46:49;;;;;;;7.23;4.40;;;4.40;99.90;;;;;;5043353;28;20313;-56
2023/11/30 08:49:16;;;;;;;5.77;4.40;;;4.40;99.90;;;;;;5045655;28;20201;-57
2023/11/30 08:51:43;;;;;;;5.10;4.07;;;4.40;99.90;;;;;;5042739;28;20296;-55
2023/11/30 08:54:10;;;;;;;7.73;4.83;;;4.40;99.90;;;;;;5040560;28;20221;-56
2023/11/30 08:56:38;;;;;;;5.67;4.53;;;4.40;99.90;;;;;;5041196;28;20252;-56
2023/11/30 08:59:05;;;;;;;7.03;4.63;;;4.60;99.90;;;;;;5043833;28;20198;-56
2023/11/30 09:01:32;;;;;;;7.00;4.63;;;4.70;99.90;;;;;;5043775;28;20198;-57
2023/11/30 09:04:02;;;;;;;7.13;5.03;;;4.80;99.90;;;;;;5040398;28;20218;-56
2023/11/30 09:06:29;;;;;;;6.57;5.17;;;4.70;99.90;;;;;;5040300;28;20226;-56
2023/11/30 09:08:56;;;;;;;6.40;5.03;;;4.60;99.90;;;;;;5043341;28;20209;-56
2023/11/30 09:11:23;;;;;;;7.40;5.30;;;4.50;99.90;;;;;;5043827;28;20652;-56
2023/11/30 09:13:52;;;;;;;7.83;5.80;;;4.40;99.90;;;;;;5041327;28;20627;-56
2023/11/30 09:16:19;;;;;;;7.07;5.43;;;4.30;99.90;;;;;;5040008;28;20229;-56
2023/11/30 09:18:45;;;;;;;6.67;5.17;;;4.30;99.90;;;;;;5041699;28;20206;-61
2023/11/30 09:21:12;;;;;;;10.07;5.93;;;4.30;99.90;;;;;;5043795;28;20259;-55
2023/11/30 09:23:39;;;;;;;7.67;5.67;;;4.30;99.90;;;;;;5042648;28;20763;-57
2023/11/30 09:26:06;;;;;;;8.07;6.30;;;4.40;99.90;;;;;;5040345;28;20249;-56
2023/11/30 09:28:33;;;;;;;9.20;6.10;;;4.30;99.90;;;;;;5040201;28;20730;-56
2023/11/30 09:31:04;;;;;;;7.73;6.57;;;4.20;99.90;;;;;;5043676;28;20202;-58
2023/11/30 09:33:31;;;;;;;8.70;6.27;;;4.10;99.90;;;;;;5043348;28;20689;-57
2023/11/30 09:35:59;;;;;;;9.63;6.37;;;4.20;99.90;;;;;;5039680;28;20711;-57
2023/11/30 09:38:25;;;;;;;8.67;6.10;;;4.10;99.90;;;;;;5039861;28;20730;-56
2023/11/30 09:40:52;;;;;;;8.73;6.40;;;4.20;99.90;;;;;;5042442;28;20206;-57
2023/11/30 09:43:20;;;;;;;6.77;5.53;;;4.30;99.90;;;;;;5043277;28;20205;-57
2023/11/30 09:45:49;;;;;;;6.73;5.87;;;4.40;99.90;;;;;;5041085;28;20233;-57
2023/11/30 09:48:17;;;;;;;10.00;6.53;;;4.40;99.90;;;;;;5039585;28;20659;-57
2023/11/30 09:50:44;;;;;;;9.80;6.33;;;4.50;99.90;;;;;;5040900;28;20632;-56
2023/11/30 09:53:11;;;;;;;7.93;6.30;;;4.60;99.90;;;;;;5043164;28;20201;-54
2023/11/30 09:55:38;;;;;;;8.90;6.37;;;4.80;99.90;;;;;;5042386;28;20715;-55
2023/11/30 09:58:05;;;;;;;7.03;6.07;;;4.80;99.90;;;;;;5039372;28;20730;-54
2023/11/30 10:00:33;;;;;;;9.63;6.93;;;4.70;99.90;;;;;;5039193;28;20202;-54
2023/11/30 10:03:00;;;;;;;13.47;6.70;;;4.70;99.90;;;;;;5043222;28;20201;-55
2023/11/30 10:05:28;;;;;;;8.77;6.10;;;4.70;99.90;;;;;;5042683;28;20240;-56
2023/11/30 10:07:58;;;;;;;8.33;6.23;;;4.70;99.90;;;;;;5039821;28;20226;-55
2023/11/30 10:10:24;;;;;;;8.90;6.70;;;4.70;99.90;;;;;;5039306;28;20236;-55
2023/11/30 10:12:52;;;;;;;9.87;6.47;;;4.80;99.90;;;;;;5041298;28;20345;-55
2023/11/30 10:15:20;;;;;;;8.20;6.43;;;4.90;99.90;;;;;;5042949;28;20625;-56
2023/11/30 10:17:47;;;;;;;7.90;6.33;;;5.00;99.90;;;;;;5041141;28;20214;-55
2023/11/30 10:20:14;;;;;;;9.07;6.53;;;5.10;99.90;;;;;;5039321;28;20206;-55
2023/11/30 10:22:42;;;;;;;8.53;6.43;;;5.10;99.90;;;;;;5040520;28;20210;-55
2023/11/30 10:25:09;;;;;;;8.53;6.87;;;5.20;99.90;;;;;;5042731;28;20575;-56
2023/11/30 10:27:37;;;;;;;8.87;6.73;;;5.30;99.90;;;;;;5042692;28;20205;-55
2023/11/30 10:30:06;;;;;;;8.20;6.33;;;5.40;99.90;;;;;;5039093;28;20206;-59
2023/11/30 10:32:34;;;;;;;8.63;6.23;;;5.50;99.90;;;;;;5039035;28;20632;-54
2023/11/30 10:35:06;;;;;;;7.70;6.03;;;5.60;99.90;;;;;;5042453;28;20201;-55
2023/11/30 10:37:36;;;;;;;8.77;5.87;;;5.70;99.90;;;;;;5039767;28;20217;-56
2023/11/30 10:40:09;;;;;;;8.48;6.68;;;5.70;99.90;;;;;;5041307;28;20431;-60
2023/11/30 10:42:36;;;;;;;7.73;6.33;;;5.70;99.90;;;;;;5042595;28;20198;-57
2023/11/30 10:45:06;;;;;;;9.47;5.97;;;5.80;99.90;;;;;;5041661;28;20218;-57
2023/11/30 10:47:34;;;;;;;10.60;6.20;;;5.90;99.90;;;;;;5049709;28;20460;-58
2023/11/30 10:50:05;;;;;;;7.57;5.70;;;5.80;99.90;;;;;;5041477;28;20586;-58
2023/11/30 10:52:33;;;;;;;7.43;5.43;;;5.80;99.90;;;;;;5050079;28;20205;-58
2023/11/30 10:55:06;;;;;;;6.97;5.70;;;5.80;99.90;;;;;;5039249;28;20195;-58
2023/11/30 10:57:33;;;;;;;10.20;5.90;;;5.80;99.90;;;;;;5039003;28;20305;-57
2023/11/30 11:00:01;;;;;;;6.20;5.00;;;6.00;99.90;;;;;;5041815;28;20248;-57
2023/11/30 11:02:36;;;;;;;8.67;6.33;;;6.10;99.90;;;;;;5042105;28;20214;-58
2023/11/30 11:05:08;;;;;;;6.80;5.73;;;6.20;99.90;;;;;;5041924;28;20249;-59
2023/11/30 11:07:35;;;;;;;8.87;6.50;;;6.20;99.90;;;;;;5042166;28;20233;-58
2023/11/30 11:10:06;;;;;;;8.97;7.20;;;6.40;99.90;;;;;;5042462;28;20209;-59
2023/11/30 11:12:39;;;;;;;6.73;5.53;;;6.60;99.90;;;;;;5042193;28;20206;-60
2023/11/30 11:15:08;;;;;;;15.60;13.47;;;6.80;99.90;;;;;;5042706;28;20668;-61
2023/11/30 11:17:44;;;;;;;6.13;5.13;;;7.10;99.90;;;;;;5045244;28;20201;-57
2023/11/30 11:20:20;;;;;;;14.10;8.33;;;7.20;99.90;;;;;;5047560;28;20198;-57
2023/11/30 11:22:47;;;;;;;10.77;6.30;;;7.20;99.90;;;;;;5044525;28;20590;-58
2023/11/30 11:25:16;;;;;;;12.07;8.63;;;7.20;99.90;;;;;;5042310;28;20232;-58
2023/11/30 11:27:43;;;;;;;7.97;6.00;;;7.30;99.90;;;;;;5042785;28;20206;-58
2023/11/30 11:30:11;;;;;;;14.20;10.37;;;7.40;99.90;;;;;;5045682;28;20296;-58
2023/11/30 11:32:40;;;;;;;6.70;5.20;;;7.40;99.90;;;;;;5045479;28;20201;-57
2023/11/30 11:35:07;;;;;;;7.07;5.50;;;7.50;99.90;;;;;;5042594;28;20236;-58
2023/11/30 11:37:34;;;;;;;5.20;4.50;;;7.50;99.90;;;;;;5042170;28;20285;-59
2023/11/30 11:40:02;;;;;;;7.03;6.03;;;7.50;99.90;;;;;;5045364;28;20206;-58
2023/11/30 11:42:32;;;;;;;5.97;5.20;;;7.30;99.90;;;;;;5038402;28;20213;-58
2023/11/30 11:45:02;;;;;;;7.20;4.97;;;7.20;99.90;;;;;;5044755;28;20324;-58
2023/11/30 11:47:29;;;;;;;6.50;4.60;;;7.30;99.90;;;;;;5045568;28;20225;-59
2023/11/30 11:49:55;;;;;;;6.67;5.30;;;7.40;99.90;;;;;;5042873;28;20208;-58
2023/11/30 11:52:23;;;;;;;6.70;4.10;;;7.50;99.90;;;;;;5041736;28;20264;-58
2023/11/30 11:54:59;;;;;;;7.10;5.23;;;7.50;99.90;;;;;;5043011;28;20253;-57
2023/11/30 11:57:33;;;;;;;6.57;4.73;;;7.30;99.90;;;;;;5044948;28;20212;-57
2023/11/30 12:00:00;;;;;;;6.63;4.73;;;7.30;99.90;;;;;;5042176;28;20256;-58
2023/11/30 12:02:27;;;;;;;6.23;4.53;;;7.40;99.90;;;;;;5041400;28;20206;-58
2023/11/30 12:04:53;;;;;;;5.77;4.97;;;7.40;99.90;;;;;;5043528;28;20222;-58
2023/11/30 12:07:20;;;;;;;7.77;4.60;;;7.50;99.90;;;;;;5045047;28;20580;-57
2023/11/30 12:09:54;;;;;;;4.80;4.30;;;7.40;99.90;;;;;;5043776;28;20209;-58
2023/11/30 12:12:21;;;;;;;5.30;4.40;;;7.50;99.90;;;;;;5042000;28;20224;-58
2023/11/30 12:14:50;;;;;;;5.53;4.50;;;7.50;99.90;;;;;;5042859;28;20293;-59
2023/11/30 12:17:17;;;;;;;5.30;4.77;;;7.40;99.90;;;;;;5044341;28;20316;-59
2023/11/30 12:19:44;;;;;;;5.53;4.07;;;7.40;99.90;;;;;;5044215;28;20214;-58
2023/11/30 12:22:11;;;;;;;5.57;4.40;;;7.40;99.90;;;;;;5041630;28;20298;-59
2023/11/30 12:24:37;;;;;;;6.20;5.10;;;7.40;99.90;;;;;;5041571;28;20275;-57
2023/11/30 12:27:05;;;;;;;6.40;4.37;;;7.30;99.90;;;;;;5040644;28;20226;-58
2023/11/30 12:29:31;;;;;;;5.00;4.10;;;7.30;99.90;;;;;;5041112;28;20229;-58
2023/11/30 12:31:59;;;;;;;7.77;4.00;;;7.30;99.90;;;;;;5043700;28;20652;-58
2023/11/30 12:34:26;;;;;;;4.43;3.73;;;7.30;99.90;;;;;;5044143;28;20671;-58
2023/11/30 12:36:54;;;;;;;5.70;4.33;;;7.20;99.90;;;;;;5041931;28;20271;-58
2023/11/30 12:39:20;;;;;;;5.53;4.10;;;7.40;99.90;;;;;;5041122;28;20238;-58
2023/11/30 12:41:47;;;;;;;4.80;4.27;;;7.40;99.90;;;;;;5041565;28;20261;-58
2023/11/30 12:44:16;;;;;;;5.77;4.63;;;7.30;99.90;;;;;;5044542;28;20205;-59
2023/11/30 12:46:43;;;;;;;5.93;4.37;;;7.30;99.90;;;;;;5043478;28;20260;-59
2023/11/30 12:49:11;;;;;;;5.73;4.10;;;7.30;99.90;;;;;;5040905;28;20206;-58
2023/11/30 12:51:38;;;;;;;5.90;4.67;;;7.30;99.90;;;;;;5040493;28;20727;-59
2023/11/30 12:54:04;;;;;;;6.83;4.73;;;7.20;99.90;;;;;;5044726;28;20276;-59
2023/11/30 12:56:32;;;;;;;7.40;4.53;;;7.10;99.90;;;;;;5043789;28;20275;-58